Aérodrome :
LOGIN :

S'inscrire | Disclaimer

   EN    FR    IT 

 










Légende :    VFR   VFR Marginal   IFR   IFR Intensif   IFR Très Intensif
Visi : 
Plafond : 
>= 8 km
>= 3000ft
5 à 8 km
1000 à 3000 ft
1500m à 5 km
500 à 1000 ft
800 à 1500m
200 à 500 ft
< 800m
< 200 ft
Symboles :   Orages  Brouillard  Fortes neiges  Fortes précipitations  Vent > 20 kt
SIGMETs :   Divers  Orages  Givrage  Turbulence  Onde Orograph.  Cendres Volcan.







- Altitude de l'aérodrome : 2697 ft
- Code IATA : BLJ


DABT - Batna

DERNIER METAR :
  • 252000Z 04007KT 9999 FEW026 21/06 Q1013

METARs EXPIRÉS :
  • 251900Z 29002KT 9999 FEW026 SCT200 23/06 Q1012
  • 251800Z 32002KT 9999 SCT026 BKN200 26/06 Q1011

TAF TAF DABT
Valide du 25 à 18h jusqu'au 26 à 18h UTC


251700Z 2518/2618 32012KT CAVOK
TEMPO 2518/2522 FEW030TCU
BECMG 2520/2522 VRB02KT
BECMG 2609/2612 22014KT FEW030TCU
TEMPO 2612/2618 5000 -TSRA SCT026CB
Pas de NOTAMs connus pour ce terrain.
1 SIGMET publié pour la FIR Alger (DAAA) :
 
Orages noyés dans la masse
DAAA SIGMET 2 VALID 251800/252200 DAMM
DAAA ALGIERS FIR ISOL EMBD TS FCST WI N3616 E00404 - N3452 E00433 - N3348 E00347 - N3316 E00103 - N3337 W00044 - N3536 E00025 - N3616 E00404 TOP FL180 MOV NE NC=



MET'MAP, la Météo Aéronautique d'un coup d'oeil ! - Copyright ORBIFLY Décembre 2007 - Disclaimer

ORBIFLY MET'MAP TEAM :

Programmation & Développement : Alexandra Zaïnal
Conception & Développement : Baudouin d'Aumeries
Co-Programmation & Développement : Marc-Olivier Méhu
Soutien technique & logistique : Manuel Goepfert

Contact : metmap@orbifly.com




SOURCES & CREDITS :

   NOAA